sensor_id;sensor_type;location;lat;lon;timestamp;pressure;altitude;pressure_sealevel;temperature;humidity
73105;BME280;61296;50.526;30.792;2023-05-20T00:04:00;100342.69;;;14.84;83.84
73105;BME280;61296;50.526;30.792;2023-05-20T00:19:19;100298.97;;;14.56;84.24
73105;BME280;61296;50.526;30.792;2023-05-20T00:34:39;100248.78;;;14.13;84.70
73105;BME280;61296;50.526;30.792;2023-05-20T00:49:59;100288.41;;;14.24;84.92
73105;BME280;61296;50.526;30.792;2023-05-20T01:05:19;100333.22;;;14.40;84.66
73105;BME280;61296;50.526;30.792;2023-05-20T01:20:38;100237.78;;;13.76;84.10
73105;BME280;61296;50.526;30.792;2023-05-20T01:35:58;100311.22;;;14.14;83.39
73105;BME280;61296;50.526;30.792;2023-05-20T01:51:18;100324.13;;;13.99;82.43
73105;BME280;61296;50.526;30.792;2023-05-20T02:06:37;100231.75;;;13.33;81.99
73105;BME280;61296;50.526;30.792;2023-05-20T02:21:56;100251.84;;;13.26;81.89
73105;BME280;61296;50.526;30.792;2023-05-20T02:37:16;100257.59;;;13.18;82.06
73105;BME280;61296;50.526;30.792;2023-05-20T02:52:37;100347.00;;;13.63;81.95
73105;BME280;61296;50.526;30.792;2023-05-20T03:07:58;100221.00;;;12.64;82.84
73105;BME280;61296;50.526;30.792;2023-05-20T03:23:17;100268.31;;;12.66;84.39
73105;BME280;61296;50.526;30.792;2023-05-20T03:38:36;100365.88;;;13.57;83.58
73105;BME280;61296;50.526;30.792;2023-05-20T03:53:56;100294.88;;;13.61;81.09
73105;BME280;61296;50.526;30.792;2023-05-20T04:09:15;100328.47;;;14.00;79.65
73105;BME280;61296;50.526;30.792;2023-05-20T04:24:35;100317.22;;;14.20;77.77
73105;BME280;61296;50.526;30.792;2023-05-20T04:39:56;100327.13;;;14.65;74.29
73105;BME280;61296;50.526;30.792;2023-05-20T04:55:16;100286.84;;;14.71;70.78
73105;BME280;61296;50.526;30.792;2023-05-20T05:10:35;100313.06;;;15.61;68.88
73105;BME280;61296;50.526;30.792;2023-05-20T05:25:55;100357.22;;;16.05;66.29
73105;BME280;61296;50.526;30.792;2023-05-20T05:41:14;100366.31;;;16.05;65.75
73105;BME280;61296;50.526;30.792;2023-05-20T05:56:35;100345.38;;;16.47;62.66
73105;BME280;61296;50.526;30.792;2023-05-20T06:11:54;100395.34;;;17.40;60.88
73105;BME280;61296;50.526;30.792;2023-05-20T06:27:14;100372.72;;;17.27;59.15
73105;BME280;61296;50.526;30.792;2023-05-20T06:42:34;100369.16;;;17.34;56.38
73105;BME280;61296;50.526;30.792;2023-05-20T06:57:56;100345.69;;;17.45;56.15
73105;BME280;61296;50.526;30.792;2023-05-20T07:13:18;100393.88;;;18.19;53.34
73105;BME280;61296;50.526;30.792;2023-05-20T07:28:37;100353.41;;;18.00;50.54
73105;BME280;61296;50.526;30.792;2023-05-20T07:43:57;100342.94;;;18.22;49.89
73105;BME280;61296;50.526;30.792;2023-05-20T07:59:16;100400.78;;;18.59;45.50
73105;BME280;61296;50.526;30.792;2023-05-20T08:14:38;100325.38;;;18.32;46.34
73105;BME280;61296;50.526;30.792;2023-05-20T08:29:59;100372.38;;;18.82;43.34
73105;BME280;61296;50.526;30.792;2023-05-20T08:45:20;100412.19;;;20.33;39.69
73105;BME280;61296;50.526;30.792;2023-05-20T09:00:42;100377.13;;;19.30;41.64
73105;BME280;61296;50.526;30.792;2023-05-20T09:16:01;100369.31;;;19.14;41.16
73105;BME280;61296;50.526;30.792;2023-05-20T09:31:25;100361.13;;;19.34;39.42
73105;BME280;61296;50.526;30.792;2023-05-20T09:47:04;100358.84;;;19.63;39.17
73105;BME280;61296;50.526;30.792;2023-05-20T10:02:28;100258.31;;;19.36;39.12
73105;BME280;61296;50.526;30.792;2023-05-20T10:33:27;100302.16;;;19.70;39.84
73105;BME280;61296;50.526;30.792;2023-05-20T10:48:55;100404.50;;;20.10;38.84
73105;BME280;61296;50.526;30.792;2023-05-20T11:04:17;100268.38;;;19.91;38.97
73105;BME280;61296;50.526;30.792;2023-05-20T11:19:40;100372.94;;;20.13;38.90
73105;BME280;61296;50.526;30.792;2023-05-20T11:35:00;100278.66;;;19.67;36.81
73105;BME280;61296;50.526;30.792;2023-05-20T11:50:19;100256.50;;;20.10;37.10
73105;BME280;61296;50.526;30.792;2023-05-20T12:05:43;100268.78;;;20.16;36.48
73105;BME280;61296;50.526;30.792;2023-05-20T12:21:03;100238.56;;;20.11;36.71
73105;BME280;61296;50.526;30.792;2023-05-20T12:36:22;100309.16;;;20.62;37.36
73105;BME280;61296;50.526;30.792;2023-05-20T12:51:41;100306.69;;;20.41;36.71
73105;BME280;61296;50.526;30.792;2023-05-20T13:07:01;100271.41;;;20.27;35.16
73105;BME280;61296;50.526;30.792;2023-05-20T13:22:21;100268.00;;;20.43;35.33
73105;BME280;61296;50.526;30.792;2023-05-20T13:37:41;100189.00;;;19.92;33.98
73105;BME280;61296;50.526;30.792;2023-05-20T13:53:00;100273.06;;;20.95;34.60
73105;BME280;61296;50.526;30.792;2023-05-20T14:08:19;100231.50;;;20.27;34.31
73105;BME280;61296;50.526;30.792;2023-05-20T14:23:39;100255.00;;;20.56;34.12
73105;BME280;61296;50.526;30.792;2023-05-20T14:39:03;100267.53;;;20.91;33.63
73105;BME280;61296;50.526;30.792;2023-05-20T14:54:22;100219.38;;;20.60;34.84
73105;BME280;61296;50.526;30.792;2023-05-20T15:09:43;100195.56;;;20.29;34.95
73105;BME280;61296;50.526;30.792;2023-05-20T15:25:02;100161.63;;;20.07;34.50
73105;BME280;61296;50.526;30.792;2023-05-20T15:40:22;100253.34;;;20.32;34.57
73105;BME280;61296;50.526;30.792;2023-05-20T15:55:41;100165.31;;;19.77;34.67
73105;BME280;61296;50.526;30.792;2023-05-20T16:11:01;100248.53;;;20.09;34.83
73105;BME280;61296;50.526;30.792;2023-05-20T16:26:20;100230.44;;;19.94;34.48
73105;BME280;61296;50.526;30.792;2023-05-20T16:41:41;100266.19;;;19.75;34.54
73105;BME280;61296;50.526;30.792;2023-05-20T16:57:02;100230.28;;;19.47;34.76
73105;BME280;61296;50.526;30.792;2023-05-20T17:12:24;100222.66;;;19.20;35.46
73105;BME280;61296;50.526;30.792;2023-05-20T17:27:43;100169.34;;;18.43;36.39
73105;BME280;61296;50.526;30.792;2023-05-20T17:43:03;100194.50;;;18.32;37.31
73105;BME280;61296;50.526;30.792;2023-05-20T17:58:24;100161.22;;;17.73;37.96
73105;BME280;61296;50.526;30.792;2023-05-20T18:13:49;100139.34;;;17.09;38.79
73105;BME280;61296;50.526;30.792;2023-05-20T18:29:09;100242.81;;;17.42;40.11
73105;BME280;61296;50.526;30.792;2023-05-20T18:44:30;100185.91;;;16.73;41.13
73105;BME280;61296;50.526;30.792;2023-05-20T18:59:49;100249.00;;;16.80;42.02
73105;BME280;61296;50.526;30.792;2023-05-20T19:15:10;100195.09;;;16.09;43.08
73105;BME280;61296;50.526;30.792;2023-05-20T19:30:29;100280.34;;;16.30;44.09
73105;BME280;61296;50.526;30.792;2023-05-20T19:45:50;100309.66;;;16.10;44.91
73105;BME280;61296;50.526;30.792;2023-05-20T20:01:16;100273.75;;;15.41;45.85
73105;BME280;61296;50.526;30.792;2023-05-20T20:16:36;100313.78;;;15.43;47.29
73105;BME280;61296;50.526;30.792;2023-05-20T20:31:56;100265.50;;;14.79;48.47
73105;BME280;61296;50.526;30.792;2023-05-20T20:47:17;100314.09;;;14.69;49.58
73105;BME280;61296;50.526;30.792;2023-05-20T21:02:36;100303.44;;;14.27;50.84
73105;BME280;61296;50.526;30.792;2023-05-20T21:17:56;100320.25;;;14.07;51.99
73105;BME280;61296;50.526;30.792;2023-05-20T21:33:15;100292.81;;;13.54;53.53
73105;BME280;61296;50.526;30.792;2023-05-20T21:48:35;100191.59;;;12.49;55.10
73105;BME280;61296;50.526;30.792;2023-05-20T22:03:54;100222.31;;;12.21;56.78
73105;BME280;61296;50.526;30.792;2023-05-20T22:19:15;100316.91;;;12.48;57.98
73105;BME280;61296;50.526;30.792;2023-05-20T22:34:34;100270.69;;;11.96;59.43
73105;BME280;61296;50.526;30.792;2023-05-20T22:49:54;100208.91;;;11.35;60.54
73105;BME280;61296;50.526;30.792;2023-05-20T23:05:15;100147.38;;;10.66;61.26
73105;BME280;61296;50.526;30.792;2023-05-20T23:20:34;100296.19;;;11.50;61.60
73105;BME280;61296;50.526;30.792;2023-05-20T23:35:54;100237.13;;;11.09;61.80
73105;BME280;61296;50.526;30.792;2023-05-20T23:51:13;100138.69;;;10.45;61.81
